createdAt,value
2019-03-11T00:00:25.196Z,1.00
2019-03-11T00:02:54.087Z,1.00
2019-03-11T00:05:22.977Z,1.00
2019-03-11T00:07:51.970Z,1.00
2019-03-11T00:10:20.862Z,1.00
2019-03-11T01:59:19.050Z,1.00
2019-03-11T02:01:48.549Z,1.00
2019-03-11T02:04:18.274Z,1.00
2019-03-11T02:06:47.156Z,1.00
2019-03-11T02:09:16.866Z,1.00
2019-03-11T02:11:45.757Z,1.00
2019-03-11T02:14:14.551Z,1.00
2019-03-11T02:16:44.560Z,1.00
2019-03-11T02:19:22.938Z,1.00
2019-03-11T02:21:55.728Z,1.00
2019-03-11T02:24:24.547Z,1.00
2019-03-11T02:26:53.438Z,1.00
2019-03-11T02:29:22.435Z,1.00
2019-03-11T02:31:51.424Z,1.00
2019-03-11T02:34:20.315Z,1.00
2019-03-11T02:36:49.309Z,1.00
2019-03-11T02:39:18.204Z,1.00
2019-03-11T02:41:47.089Z,1.00
2019-03-11T02:44:16.094Z,1.00
2019-03-11T02:46:44.974Z,1.00
2019-03-11T02:49:13.865Z,99.90
2019-03-11T02:51:42.859Z,1.00
2019-03-11T02:54:11.749Z,1.00
2019-03-11T02:56:40.649Z,1.00
2019-03-11T02:59:09.632Z,1.00
2019-03-11T03:01:42.722Z,31.10
2019-03-11T03:04:16.017Z,35.10
2019-03-11T03:53:47.588Z,70.40
2019-03-11T03:56:16.480Z,84.90
2019-03-11T03:58:45.367Z,78.70
2019-03-11T04:01:14.360Z,79.30
2019-03-11T04:03:43.353Z,78.50
2019-03-11T04:06:12.243Z,78.90
2019-03-11T04:08:41.134Z,85.40
2019-03-11T04:11:10.048Z,79.90
2019-03-11T04:13:39.017Z,77.20
2019-03-11T04:16:07.911Z,80.80
2019-03-11T04:18:53.905Z,77.60
2019-03-11T04:21:22.805Z,79.10
2019-03-11T04:23:52.633Z,79.40
2019-03-11T04:26:23.037Z,78.30
2019-03-11T04:28:51.921Z,83.60
2019-03-11T04:31:20.813Z,78.50
2019-03-11T04:33:49.703Z,78.80
2019-03-11T04:36:18.579Z,79.40
2019-03-11T04:38:47.483Z,83.60
2019-03-11T04:41:16.375Z,78.20
2019-03-11T04:43:45.367Z,79.50
2019-03-11T04:46:14.258Z,86.70
2019-03-11T04:48:43.152Z,81.70
2019-03-11T04:51:12.040Z,80.30
2019-03-11T04:53:40.924Z,79.90
2019-03-11T04:56:09.823Z,80.90
2019-03-11T04:58:38.712Z,79.40
2019-03-11T05:01:07.603Z,81.00
2019-03-11T05:03:36.596Z,80.70
2019-03-11T05:06:05.488Z,80.40
2019-03-11T05:08:34.378Z,83.30
2019-03-11T05:11:03.268Z,83.30
2019-03-11T05:13:32.262Z,81.50
2019-03-11T05:16:01.152Z,80.90
2019-03-11T05:18:30.043Z,81.50
2019-03-11T05:20:58.934Z,80.90
2019-03-11T05:23:27.929Z,1.00
2019-03-11T05:25:56.789Z,1.00
2019-03-11T05:28:25.708Z,1.00
2019-03-11T05:30:54.702Z,1.00
2019-03-11T05:33:23.595Z,1.00
2019-03-11T05:35:52.487Z,1.00
2019-03-11T05:38:21.477Z,1.00
2019-03-11T05:40:50.369Z,1.00
2019-03-11T05:43:19.233Z,1.00
2019-03-11T05:45:48.149Z,1.00
2019-03-11T05:48:17.029Z,1.00
2019-03-11T05:50:45.934Z,1.00
2019-03-11T05:53:14.927Z,1.00
2019-03-11T05:55:43.950Z,1.00
2019-03-11T05:58:12.810Z,1.00
2019-03-11T06:00:41.698Z,1.00
2019-03-11T06:03:10.586Z,1.00
2019-03-11T06:05:39.479Z,1.00
2019-03-11T06:08:09.791Z,1.00
2019-03-11T06:10:38.695Z,1.00
2019-03-11T06:13:07.590Z,1.00
2019-03-11T06:15:36.580Z,1.00
2019-03-11T06:18:05.471Z,1.00
2019-03-11T06:20:50.849Z,99.90
2019-03-11T06:23:19.732Z,99.90
2019-03-11T06:25:48.631Z,99.90
2019-03-11T06:28:17.520Z,99.90
2019-03-11T06:30:46.336Z,1.00
2019-03-11T06:33:15.211Z,1.00
2019-03-11T06:35:44.091Z,99.90
2019-03-11T06:38:12.980Z,1.00
2019-03-11T06:40:41.882Z,1.00
2019-03-11T06:43:10.864Z,1.00
2019-03-11T06:45:39.756Z,1.00
2019-03-11T06:48:08.646Z,1.00
2019-03-11T06:50:37.640Z,1.00
2019-03-11T06:53:06.529Z,1.00
2019-03-11T06:55:35.423Z,1.00
2019-03-11T06:58:04.414Z,7.80
2019-03-11T07:00:33.408Z,1.00
2019-03-11T07:03:02.297Z,34.10
2019-03-11T07:05:31.291Z,39.00
2019-03-11T07:08:00.286Z,49.70
2019-03-11T07:10:29.169Z,48.70
2019-03-11T07:12:58.011Z,36.90
2019-03-11T07:15:26.956Z,40.10
2019-03-11T07:17:55.949Z,40.50
2019-03-11T07:20:24.867Z,60.80
2019-03-11T07:22:53.834Z,77.70
2019-03-11T07:25:22.718Z,76.80
2019-03-11T07:27:51.616Z,76.90
2019-03-11T07:30:21.247Z,80.20
2019-03-11T07:32:50.113Z,76.00
2019-03-11T07:37:47.488Z,77.00
2019-03-11T07:40:29.158Z,76.70
2019-03-11T07:42:49.158Z,73.50
2019-03-11T07:45:18.150Z,74.50
2019-03-11T07:47:47.143Z,75.70
2019-03-11T07:50:17.262Z,72.50
2019-03-11T07:52:46.155Z,72.70
2019-03-11T07:55:15.151Z,71.20
2019-03-11T07:57:44.840Z,69.10
2019-03-11T08:00:19.075Z,67.50
2019-03-11T08:02:48.066Z,67.40
2019-03-11T08:05:16.956Z,65.70
2019-03-11T08:07:46.614Z,1.00
2019-03-11T08:12:46.189Z,1.00
2019-03-11T08:15:16.980Z,1.00
2019-03-11T08:17:45.917Z,1.00
2019-03-11T08:20:16.788Z,1.00
2019-03-11T08:22:45.644Z,1.00
2019-03-11T08:25:16.499Z,1.00
2019-03-11T08:27:45.372Z,20.30
2019-03-11T08:30:19.998Z,99.90
2019-03-11T08:32:48.989Z,29.90
2019-03-11T08:35:18.682Z,80.30
2019-03-11T08:37:47.590Z,99.90
2019-03-11T08:40:18.426Z,75.40
2019-03-11T08:42:47.412Z,27.30
2019-03-11T08:45:19.075Z,96.80
2019-03-11T08:47:47.965Z,25.20
2019-03-11T08:50:17.882Z,36.20
2019-03-11T08:52:46.777Z,46.30
2019-03-11T08:55:16.309Z,72.90
2019-03-11T08:57:45.270Z,55.00
2019-03-11T09:00:19.588Z,45.20
2019-03-11T09:02:48.581Z,77.70
2019-03-11T09:05:19.238Z,65.40
2019-03-11T09:07:48.924Z,46.80
2019-03-11T09:10:19.420Z,18.90
2019-03-11T09:12:48.342Z,1.00
2019-03-11T09:15:21.885Z,1.00
2019-03-11T09:17:50.719Z,1.00
2019-03-11T09:20:20.544Z,1.00
2019-03-11T09:22:49.437Z,1.00
2019-03-11T09:25:23.445Z,1.00
2019-03-11T09:27:52.337Z,1.00
2019-03-11T09:30:23.603Z,1.00
2019-03-11T09:32:53.831Z,1.00
2019-03-11T09:35:22.797Z,1.00
2019-03-11T09:37:51.691Z,1.00
2019-03-11T09:40:22.479Z,1.00
2019-03-11T09:42:51.417Z,1.00
2019-03-11T09:45:21.125Z,1.00
2019-03-11T09:47:50.022Z,1.00
2019-03-11T09:50:19.828Z,1.00
2019-03-11T09:52:48.720Z,1.00
2019-03-11T09:55:23.237Z,1.00
2019-03-11T09:57:52.133Z,1.00
2019-03-11T10:00:29.420Z,1.00
2019-03-11T10:02:58.313Z,1.00
2019-03-11T10:05:27.900Z,1.00
2019-03-11T10:07:57.028Z,1.00
2019-03-11T10:10:29.335Z,1.00
2019-03-11T10:12:58.278Z,1.00
2019-03-11T10:15:27.987Z,1.00
2019-03-11T10:17:56.984Z,1.00
2019-03-11T10:20:25.872Z,1.00
2019-03-11T10:22:54.764Z,1.00
2019-03-11T10:25:23.761Z,1.00
2019-03-11T10:27:52.661Z,1.00
2019-03-11T10:30:23.619Z,1.00
2019-03-11T10:32:52.507Z,1.00
2019-03-11T10:35:37.149Z,1.00
2019-03-11T10:37:52.511Z,1.00
2019-03-11T10:40:26.932Z,1.00
2019-03-11T10:42:55.822Z,1.00
2019-03-11T10:45:31.336Z,1.00
2019-03-11T10:47:55.965Z,1.00
2019-03-11T10:50:24.952Z,1.00
2019-03-11T10:52:53.843Z,1.00
2019-03-11T10:55:24.867Z,1.00
2019-03-11T10:57:53.723Z,1.00
2019-03-11T11:00:32.705Z,1.00
2019-03-11T11:03:01.696Z,1.00
2019-03-11T11:05:30.636Z,1.00
2019-03-11T11:07:59.579Z,1.00
2019-03-11T11:10:28.469Z,1.00
2019-03-11T11:12:57.360Z,1.00
2019-03-11T11:15:28.811Z,1.00
2019-03-11T11:17:57.815Z,1.00
2019-03-11T11:20:28.220Z,1.00
2019-03-11T11:22:57.939Z,1.00
2019-03-11T11:25:28.828Z,1.00
2019-03-11T11:27:58.459Z,1.00
2019-03-11T11:30:32.498Z,1.00
2019-03-11T11:33:01.391Z,1.00
2019-03-11T11:35:30.381Z,1.00
2019-03-11T11:37:59.377Z,1.00
2019-03-11T11:40:29.776Z,1.00
2019-03-11T11:42:58.702Z,1.00
2019-03-11T11:45:30.146Z,1.00
2019-03-11T11:47:59.140Z,1.00
2019-03-11T11:50:28.132Z,1.00
2019-03-11T11:52:57.125Z,1.00
2019-03-11T11:55:26.013Z,1.00
2019-03-11T11:57:55.108Z,1.00
2019-03-11T12:00:34.036Z,1.00
2019-03-11T12:03:03.745Z,1.00
2019-03-11T12:05:32.636Z,1.00
2019-03-11T12:08:01.527Z,1.00
2019-03-11T12:10:32.157Z,1.00
2019-03-11T12:13:01.647Z,1.00
2019-03-11T12:15:30.554Z,1.00
2019-03-11T12:17:59.552Z,1.00
2019-03-11T12:20:31.101Z,1.00
2019-03-11T12:22:59.992Z,1.00
2019-03-11T12:25:28.984Z,1.00
2019-03-11T12:27:58.320Z,1.00
2019-03-11T12:30:29.940Z,1.00
2019-03-11T12:32:59.648Z,1.00
2019-03-11T12:35:29.258Z,1.00
2019-03-11T12:37:59.663Z,1.00
2019-03-11T12:40:28.583Z,1.00
2019-03-11T12:42:57.568Z,1.00
2019-03-11T12:45:27.552Z,1.00
2019-03-11T12:47:56.477Z,1.00
2019-03-11T12:50:33.283Z,1.00
2019-03-11T12:53:02.139Z,1.00
2019-03-11T12:55:31.033Z,1.00
2019-03-11T12:58:00.134Z,1.00
2019-03-11T13:00:29.022Z,1.00
2019-03-11T13:02:58.013Z,1.00
2019-03-11T13:10:26.485Z,1.00
2019-03-11T13:12:55.425Z,1.00
2019-03-11T13:15:24.416Z,1.00
2019-03-11T13:17:53.405Z,1.00
2019-03-11T13:20:37.654Z,1.00
2019-03-11T13:23:06.527Z,1.00
2019-03-11T13:25:35.486Z,1.00
2019-03-11T13:28:04.431Z,1.00
2019-03-11T13:30:33.436Z,1.00
2019-03-11T13:33:02.319Z,1.00
2019-03-11T13:35:31.206Z,1.00
2019-03-11T13:38:00.200Z,1.00
2019-03-11T13:40:29.084Z,1.00
2019-03-11T15:42:38.325Z,1.00
2019-03-11T15:45:10.028Z,1.00
2019-03-11T15:47:38.975Z,1.00
2019-03-11T15:50:19.841Z,1.00
2019-03-11T15:52:49.453Z,1.00
2019-03-11T15:55:19.063Z,1.00
2019-03-11T15:57:47.954Z,1.00
2019-03-11T16:00:19.535Z,1.00
2019-03-11T16:02:49.104Z,1.00
2019-03-11T16:05:20.973Z,1.00
2019-03-11T16:07:50.891Z,1.00
2019-03-11T16:10:22.177Z,1.00
2019-03-11T16:12:51.133Z,1.00
2019-03-11T16:15:20.708Z,1.00
2019-03-11T16:17:49.738Z,1.00
2019-03-11T16:20:21.132Z,1.00
2019-03-11T16:22:50.069Z,1.00
2019-03-11T16:25:18.971Z,1.00
2019-03-11T16:27:47.851Z,1.00
2019-03-11T16:30:19.743Z,1.00
2019-03-11T16:32:58.412Z,1.00
2019-03-11T16:35:21.589Z,1.00
2019-03-11T16:37:50.479Z,1.00
2019-03-11T16:40:20.088Z,1.00
2019-03-11T16:42:48.984Z,1.00
2019-03-11T16:45:20.184Z,1.00
2019-03-11T16:47:49.934Z,1.00
2019-03-11T16:50:20.997Z,1.00
2019-03-11T16:52:49.868Z,1.00
2019-03-11T16:55:28.588Z,1.00
2019-03-11T16:57:57.480Z,1.00
2019-03-11T17:00:31.081Z,1.00
2019-03-11T17:03:00.072Z,1.00
2019-03-11T17:05:28.963Z,1.00
2019-03-11T17:07:57.853Z,1.00
2019-03-11T17:10:26.848Z,1.00
2019-03-11T17:12:55.739Z,1.00
2019-03-11T17:15:24.629Z,1.00
2019-03-11T17:17:53.622Z,1.00
2019-03-11T17:20:22.516Z,1.00
2019-03-11T17:22:51.403Z,1.00
2019-03-11T17:25:20.396Z,1.00
2019-03-11T17:27:49.389Z,1.00
2019-03-11T17:30:23.605Z,1.00
2019-03-11T17:32:52.612Z,1.00
2019-03-11T17:35:21.423Z,1.00
2019-03-11T17:37:50.381Z,1.00
2019-03-11T17:40:21.645Z,1.00
2019-03-11T17:42:51.288Z,1.00
2019-03-11T17:45:21.125Z,1.00
2019-03-11T17:47:50.653Z,1.00
2019-03-11T17:50:21.549Z,1.00
2019-03-11T17:52:52.021Z,1.00
2019-03-11T17:55:22.452Z,1.00
2019-03-11T17:57:51.337Z,1.00
2019-03-11T18:00:27.500Z,1.00
2019-03-11T18:02:57.106Z,1.00
2019-03-11T18:05:25.990Z,1.00
2019-03-11T18:07:54.891Z,1.00
2019-03-11T18:10:23.754Z,1.00
2019-03-11T18:12:52.669Z,1.00
2019-03-11T18:15:21.662Z,1.00
2019-03-11T18:17:51.121Z,1.00
2019-03-11T18:20:21.755Z,1.00
2019-03-11T18:29:39.800Z,1.00
2019-03-11T18:32:09.313Z,1.00
2019-03-11T18:34:38.182Z,1.00
2019-03-11T18:37:07.085Z,1.00
2019-03-11T18:39:35.983Z,1.00
2019-03-11T18:42:04.859Z,1.00
2019-03-11T18:44:33.740Z,1.00
2019-03-11T18:47:02.666Z,1.00
2019-03-11T18:49:31.522Z,1.00
2019-03-11T18:52:01.079Z,1.00
2019-03-11T18:54:30.039Z,1.00
2019-03-11T18:56:59.014Z,1.00
2019-03-11T18:59:29.541Z,1.00
2019-03-11T19:01:58.434Z,1.00
2019-03-11T19:04:27.360Z,1.00
2019-03-11T19:06:56.317Z,1.00
2019-03-11T19:09:25.345Z,1.00
2019-03-11T19:11:54.338Z,1.00
2019-03-11T19:14:23.968Z,1.00
2019-03-11T19:16:52.798Z,1.00
2019-03-11T19:19:21.716Z,1.00
2019-03-11T19:21:50.801Z,1.00
2019-03-11T19:24:19.613Z,1.00
2019-03-11T19:26:48.530Z,1.00
2019-03-11T19:29:17.437Z,1.00
2019-03-11T19:31:46.374Z,1.00
2019-03-11T19:34:15.208Z,1.00
2019-03-11T19:36:44.057Z,1.00
2019-03-11T19:39:14.232Z,1.00
2019-03-11T19:41:43.156Z,1.00
2019-03-11T19:44:12.136Z,1.00
2019-03-11T19:46:41.097Z,1.00
2019-03-11T19:49:11.147Z,1.00
2019-03-11T19:51:40.284Z,1.00
2019-03-11T19:54:09.193Z,1.00
2019-03-11T19:56:38.067Z,1.00
2019-03-11T19:59:07.109Z,1.00
2019-03-11T20:01:35.938Z,1.00
2019-03-11T20:04:05.042Z,1.00
2019-03-11T20:06:33.954Z,1.00
2019-03-11T20:09:02.982Z,1.00
2019-03-11T20:11:31.855Z,1.00
2019-03-11T20:14:00.918Z,1.00
2019-03-11T20:16:29.747Z,1.00
2019-03-11T20:18:58.684Z,1.00
2019-03-11T20:21:27.789Z,1.00
2019-03-11T20:23:56.662Z,1.00
2019-03-11T20:26:25.646Z,1.00
2019-03-11T20:28:54.553Z,1.00
2019-03-11T20:31:23.408Z,1.00
2019-03-11T20:33:52.213Z,1.00
2019-03-11T20:36:21.635Z,1.00
2019-03-11T20:38:50.544Z,1.00
2019-03-11T20:41:19.403Z,1.00
2019-03-11T20:43:48.268Z,1.00
2019-03-11T20:46:17.159Z,1.00
2019-03-11T20:48:45.999Z,1.00
2019-03-11T20:51:14.868Z,1.00
2019-03-11T20:53:43.973Z,1.00
2019-03-11T20:56:12.842Z,1.00
2019-03-11T20:58:41.815Z,1.00
2019-03-11T21:01:10.665Z,1.00
2019-03-11T21:03:39.481Z,1.00
2019-03-11T21:06:08.882Z,1.00
2019-03-11T21:08:37.680Z,1.00
2019-03-11T21:11:06.565Z,1.00
2019-03-11T21:13:35.650Z,1.00
2019-03-11T21:16:04.511Z,1.00
2019-03-11T21:18:33.508Z,1.00
2019-03-11T21:21:05.223Z,1.00
2019-03-11T21:23:32.895Z,1.00
2019-03-11T21:26:01.782Z,1.00
2019-03-11T21:28:30.749Z,1.00
2019-03-11T21:30:59.662Z,1.00
2019-03-11T21:33:28.553Z,1.00
2019-03-11T21:35:57.647Z,1.00
2019-03-11T21:38:27.236Z,1.00
2019-03-11T21:40:57.814Z,1.00
2019-03-11T21:43:26.689Z,1.00
2019-03-11T21:45:56.538Z,1.00
2019-03-11T21:48:25.483Z,1.00
2019-03-11T21:50:54.419Z,1.00
2019-03-11T21:53:23.285Z,1.00
2019-03-11T21:55:52.191Z,1.00
2019-03-11T21:58:21.175Z,1.00
2019-03-11T22:00:50.038Z,1.00
2019-03-11T22:03:18.929Z,1.00
2019-03-11T22:05:47.821Z,1.00
2019-03-11T22:08:16.711Z,1.00
2019-03-11T22:10:45.601Z,1.00
2019-03-11T22:13:14.491Z,1.00
2019-03-11T22:15:43.383Z,1.00
2019-03-11T22:18:12.281Z,1.00
2019-03-11T22:20:41.268Z,1.00
2019-03-11T22:23:10.158Z,1.00
2019-03-11T22:25:39.151Z,1.00
2019-03-11T22:28:08.042Z,1.00
2019-03-11T22:30:36.960Z,1.00
2019-03-11T22:33:05.925Z,1.00
2019-03-11T22:35:34.825Z,1.00
2019-03-11T22:38:03.711Z,1.00
2019-03-11T22:40:32.599Z,1.00
2019-03-11T22:43:01.493Z,1.00
2019-03-11T22:45:30.379Z,1.00
2019-03-11T22:47:59.270Z,1.00
2019-03-11T22:50:28.161Z,1.00
2019-03-11T22:52:57.052Z,1.00
2019-03-11T22:55:26.659Z,1.00
2019-03-11T22:57:55.654Z,1.00
2019-03-11T23:00:56.288Z,1.00
2019-03-11T23:03:26.106Z,1.00
2019-03-11T23:05:57.960Z,1.00
2019-03-11T23:08:26.339Z,1.00
2019-03-11T23:10:55.332Z,1.00
2019-03-11T23:13:24.325Z,1.00
2019-03-11T23:15:53.319Z,1.00
2019-03-11T23:18:22.210Z,1.00
2019-03-11T23:20:51.203Z,1.00
2019-03-11T23:23:20.093Z,1.00
2019-03-11T23:25:48.984Z,1.00
2019-03-11T23:28:17.977Z,1.00
2019-03-11T23:30:46.970Z,1.00
2019-03-11T23:33:15.864Z,1.00
2019-03-11T23:35:44.854Z,1.00
2019-03-11T23:38:13.725Z,1.00
2019-03-11T23:40:42.635Z,1.00
2019-03-11T23:43:11.630Z,1.00
2019-03-11T23:45:40.519Z,1.00
2019-03-11T23:48:09.351Z,1.00
2019-03-11T23:50:38.300Z,1.00
2019-03-11T23:53:07.193Z,1.00
2019-03-11T23:55:36.082Z,1.00
2019-03-11T23:58:05.074Z,1.00
